Aeroporto :
LOGIN :

Iscrizione | Disclaimer

   EN    FR    IT 

 










Sommario :    VFR   VFR Marginale   IFR   IFR Intensivo   IFR Molto Intensivo
Visibilità : 
Base nubi : 
>= 8 km
>= 3000ft
5 / 8 km
1000 / 3000 ft
1500m / 5 km
500 / 1000 ft
800 / 1500m
200 / 500 ft
< 800m
< 200 ft
Simboli :   Temporali  Nebbia  Neve Forte  Precipitazioni Forti  Vento > 20 kt
SIGMETs :   Varie  Temporali  Ghiacco  Turbolenza  Onda orograficha  Ceneri Vulcaniche






- Altitudine del aeroporto : 23 ft
- Codice IATA : XFW


EDHI - Hamburg Finkenwerder

ULTIMO METAR :
  • 212250Z AUTO 22005KT 9999 // FEW040/// BKN045/// 12/10 Q1020

METARs OBSOLETI :
  • 212220Z AUTO 22006KT 9999 // BKN038/// BKN047/// 12/10 Q1020
  • 212150Z AUTO 22005KT 9999 // BKN036/// BKN044/// 12/10 Q1020
  • 212120Z AUTO 25006KT 9999 // FEW030/// 12/10 Q1020
  • 212050Z AUTO 24008KT 9999 // FEW022/// BKN028/// 13/12 Q1020
  • 212020Z AUTO 23009KT 9000 // FEW011/// BKN020/// 13/13 Q1020

Previsioni scadute.



MetMap, La meteo Aeronautica in un colpo d'occhio ! - Copyright ORBIFLY Dicembre 2007 - Disclaimer

ORBIFLY MET'MAP TEAM :

Programmazione e sviluppo : Alexandra Zaïnal
Concezione e sviluppo : Baudouin d'Aumeries
Co-Programmazione e sviluppo : Marc-Olivier Méhu
Supporto tecnico e logistico : Manuel Goepfert
Aiuto per la traduzione : Arnaldo La Scala

Contatto : metmap@orbifly.com




FONTI E CREDITI :

   NOAA